Time;durP1;ratioP1;P1;durP2;ratioP2;P2;SDS_P1;SDS_P2;PMS_P1;PMS_P2;Temp;Humidity;BMP_temperature;BMP_pressure;BME280_temperature;BME280_humidity;BME280_pressure;Samples;Min_cycle;Max_cycle;Signal;HPM_P1;HPM_P2
2023/12/04 00:01:16;;;;;;;;;14.75;9.25;;;;;4.37;60.27;100846.97;5064010;28;45344;-71
2023/12/04 00:03:42;;;;;;;;;14.50;11.75;;;;;4.38;61.69;100835.63;5078972;27;45418;-71
2023/12/04 00:06:08;;;;;;;;;11.00;9.50;;;;;4.38;61.29;100825.16;5090927;27;45164;-71
2023/12/04 00:08:35;;;;;;;;;12.25;10.25;;;;;4.22;60.66;100794.97;5080666;27;45548;-71
2023/12/04 00:11:01;;;;;;;;;7.75;7.75;;;;;4.40;60.31;100818.13;5077699;28;45270;-71
2023/12/04 00:13:26;;;;;;;;;8.00;8.00;;;;;4.38;60.14;100806.81;5081654;27;45294;-71
2023/12/04 00:15:54;;;;;;;;;9.00;8.00;;;;;4.39;60.60;100803.28;5083962;27;46218;-71
2023/12/04 00:18:25;;;;;;;;;9.50;9.50;;;;;4.45;60.21;100816.25;5091976;27;45390;-71
2023/12/04 00:20:51;;;;;;;;;7.00;3.00;;;;;4.41;60.90;100798.91;5075237;27;45412;-71
2023/12/04 00:23:16;;;;;;;;;7.25;7.25;;;;;4.41;60.27;100791.03;5081679;27;45503;-71
2023/12/04 00:25:44;;;;;;;;;8.00;8.00;;;;;4.35;60.50;100775.44;5085604;27;46073;-71
2023/12/04 00:28:10;;;;;;;;;7.00;7.00;;;;;4.51;60.03;100789.09;5084969;27;45548;-71
2023/12/04 00:30:35;;;;;;;;;10.25;7.75;;;;;4.47;61.50;100783.06;5091528;27;45346;-70
2023/12/04 00:33:00;;;;;;;;;10.75;9.00;;;;;4.47;60.56;100769.09;5087063;27;45301;-70
2023/12/04 00:35:26;;;;;;;;;9.00;8.50;;;;;4.50;60.00;100775.13;5083807;27;45415;-70
2023/12/04 00:37:51;;;;;;;;;8.25;7.00;;;;;4.54;60.10;100782.03;5074933;28;45489;-71
2023/12/04 00:40:16;;;;;;;;;7.00;7.00;;;;;4.48;59.86;100752.50;5064255;27;45577;-71
2023/12/04 00:42:42;;;;;;;;;6.25;6.25;;;;;4.59;60.72;100758.31;5096037;27;45246;-71
2023/12/04 00:45:08;;;;;;;;;12.00;6.00;;;;;4.57;60.07;100754.91;5082272;27;45291;-71
2023/12/04 00:47:33;;;;;;;;;7.75;6.25;;;;;4.59;60.19;100746.09;5072775;27;45387;-71
2023/12/04 00:49:58;;;;;;;;;7.75;7.75;;;;;4.61;60.16;100741.66;5101218;27;45452;-71
2023/12/04 00:52:24;;;;;;;;;6.25;6.25;;;;;4.62;60.38;100730.31;5095347;27;45355;-71
2023/12/04 00:54:49;;;;;;;;;8.25;6.50;;;;;4.65;60.26;100724.13;5093472;27;45370;-71
2023/12/04 00:57:15;;;;;;;;;6.00;6.00;;;;;4.67;59.52;100730.22;5087646;27;45368;-71
2023/12/04 00:59:43;;;;;;;;;8.00;7.00;;;;;4.68;60.22;100716.19;5090087;27;45400;-71
2023/12/04 01:02:08;;;;;;;;;8.75;7.00;;;;;4.64;59.19;100709.31;5092925;27;45524;-71
2023/12/04 01:04:33;;;;;;;;;11.25;7.50;;;;;4.62;60.02;100695.38;5086826;27;45488;-70
2023/12/04 01:06:59;;;;;;;;;7.25;7.25;;;;;4.67;60.40;100696.16;5086882;27;45373;-70
2023/12/04 01:09:27;;;;;;;;;11.00;7.00;;;;;4.56;60.17;100683.31;5099705;27;45437;-71
2023/12/04 01:11:54;;;;;;;;;9.50;6.00;;;;;4.73;60.50;100698.63;5091242;27;45582;-71
2023/12/04 01:14:20;;;;;;;;;7.75;6.00;;;;;4.69;60.63;100689.09;5089822;27;45657;-71
2023/12/04 01:16:46;;;;;;;;;8.75;7.50;;;;;4.60;60.31;100657.91;5093152;27;45270;-71
2023/12/04 01:19:11;;;;;;;;;7.25;7.25;;;;;4.76;60.05;100677.59;5099484;27;45477;-71
2023/12/04 01:21:36;;;;;;;;;9.75;7.00;;;;;4.74;60.32;100667.13;5089761;27;45424;-71
2023/12/04 01:24:02;;;;;;;;;7.25;6.00;;;;;4.71;60.60;100655.91;5096663;27;45838;-71
2023/12/04 01:26:27;;;;;;;;;10.25;7.00;;;;;4.72;60.70;100654.97;5082586;27;45310;-71
2023/12/04 01:28:53;;;;;;;;;11.25;9.00;;;;;4.73;60.95;100649.72;5094398;27;45441;-71
2023/12/04 01:31:18;;;;;;;;;7.00;7.00;;;;;4.59;60.41;100628.25;5088602;27;45416;-71
2023/12/04 01:33:43;;;;;;;;;8.50;8.50;;;;;4.72;61.03;100642.75;5084282;27;46336;-70
2023/12/04 01:36:11;;;;;;;;;7.50;6.25;;;;;4.73;60.45;100638.38;5084171;27;45374;-70
2023/12/04 01:38:37;;;;;;;;;9.25;8.75;;;;;4.77;60.84;100636.53;5081278;27;45529;-71
2023/12/04 01:41:03;;;;;;;;;8.25;7.75;;;;;4.80;61.17;100641.69;5094574;27;45349;-71
2023/12/04 01:43:28;;;;;;;;;7.00;7.00;;;;;4.81;60.75;100635.56;5093432;27;47150;-71
2023/12/04 01:45:54;;;;;;;;;8.00;7.25;;;;;4.83;61.16;100626.75;5085432;27;45297;-71
2023/12/04 01:48:20;;;;;;;;;7.50;6.25;;;;;4.82;61.38;100622.41;5091650;27;45231;-71
2023/12/04 01:50:46;;;;;;;;;8.25;8.00;;;;;4.83;60.55;100637.22;5080446;27;45820;-71
2023/12/04 01:53:11;;;;;;;;;8.50;6.75;;;;;4.71;61.58;100609.56;5084339;27;45654;-71
2023/12/04 01:55:38;;;;;;;;;7.50;7.50;;;;;4.82;61.24;100626.78;5093663;27;45472;-71
2023/12/04 01:58:05;;;;;;;;;6.00;5.25;;;;;4.83;60.70;100615.41;5082665;27;45434;-71
2023/12/04 02:00:31;;;;;;;;;9.25;6.75;;;;;4.88;61.59;100618.75;5098833;27;45340;-71
2023/12/04 02:03:02;;;;;;;;;5.25;3.00;;;;;4.63;61.48;100587.13;5075528;28;47657;-71
2023/12/04 02:05:29;;;;;;;;;8.25;6.75;;;;;4.84;61.69;100610.13;5084370;27;45330;-70
2023/12/04 02:07:57;;;;;;;;;12.00;8.00;;;;;4.88;61.93;100621.38;5087340;27;45386;-70
2023/12/04 02:10:23;;;;;;;;;9.50;7.50;;;;;4.85;62.35;100630.19;5093882;27;45437;-71
2023/12/04 02:12:50;;;;;;;;;8.75;8.00;;;;;4.88;61.54;100631.84;5093317;27;45393;-71
2023/12/04 02:15:15;;;;;;;;;7.50;7.50;;;;;4.72;62.27;100611.31;5072553;28;45411;-71
2023/12/04 02:17:43;;;;;;;;;7.25;7.25;;;;;4.77;61.54;100618.19;5092707;27;45334;-71
2023/12/04 02:20:09;;;;;;;;;9.00;7.25;;;;;4.78;61.63;100612.91;5082508;27;45533;-71
2023/12/04 02:22:34;;;;;;;;;6.25;6.00;;;;;4.86;61.68;100624.03;5101310;27;46441;-71
2023/12/04 02:25:00;;;;;;;;;10.75;7.50;;;;;4.87;61.68;100619.66;5098806;27;45305;-71
2023/12/04 02:27:32;;;;;;;;;6.00;6.00;;;;;4.86;61.48;100615.31;5077759;27;45498;-71
2023/12/04 02:30:01;;;;;;;;;7.00;6.00;;;;;4.70;61.76;100596.53;5086065;27;45286;-70
2023/12/04 02:32:33;;;;;;;;;9.75;7.00;;;;;4.78;61.87;100610.28;5093575;27;46454;-70
2023/12/04 02:35:01;;;;;;;;;6.00;6.00;;;;;4.86;61.90;100629.28;5083820;27;45306;-71
2023/12/04 02:37:28;;;;;;;;;8.25;7.25;;;;;4.84;61.57;100622.38;5081034;27;45640;-71
2023/12/04 02:39:55;;;;;;;;;7.00;7.00;;;;;4.86;61.99;100616.19;5080566;27;45483;-71
2023/12/04 02:42:24;;;;;;;;;6.50;4.00;;;;;4.87;62.24;100615.28;5082171;27;45380;-71
2023/12/04 02:44:53;;;;;;;;;8.75;7.00;;;;;4.79;61.88;100606.75;5079482;27;45425;-71
2023/12/04 02:47:18;;;;;;;;;8.00;6.00;;;;;4.88;61.88;100622.22;5095849;27;45317;-71
2023/12/04 02:49:44;;;;;;;;;14.50;11.25;;;;;4.91;61.70;100621.31;5085448;27;45570;-71
2023/12/04 02:52:09;;;;;;;;;6.75;6.75;;;;;4.88;62.55;100603.88;5099401;27;45353;-71
2023/12/04 02:54:34;;;;;;;;;8.50;7.50;;;;;4.85;62.27;100597.88;5092094;27;45217;-70
2023/12/04 02:57:00;;;;;;;;;7.00;5.50;;;;;4.93;62.43;100603.78;5099819;27;45280;-70
2023/12/04 02:59:25;;;;;;;;;5.00;4.00;;;;;4.91;62.07;100601.19;5096655;27;45346;-71
2023/12/04 03:01:53;;;;;;;;;7.50;6.00;;;;;4.93;61.64;100594.16;5097735;27;46184;-70
2023/12/04 03:04:21;;;;;;;;;9.50;7.25;;;;;4.97;61.57;100585.31;5093065;27;45596;-71
2023/12/04 03:06:47;;;;;;;;;9.25;6.75;;;;;4.84;62.20;100562.13;5079509;27;45455;-71
2023/12/04 03:09:12;;;;;;;;;12.25;8.00;;;;;4.94;62.42;100572.28;5078961;27;45321;-71
2023/12/04 03:11:41;;;;;;;;;8.25;7.75;;;;;4.99;62.62;100561.69;5062084;28;47215;-70
2023/12/04 03:14:07;;;;;;;;;7.75;6.50;;;;;4.85;63.16;100530.63;5091231;27;45194;-71
2023/12/04 03:16:32;;;;;;;;;8.50;7.00;;;;;5.02;63.17;100566.81;5078973;27;45374;-71
2023/12/04 03:18:58;;;;;;;;;7.75;6.50;;;;;4.97;63.39;100558.25;5080197;27;45734;-71
2023/12/04 03:21:23;;;;;;;;;13.50;9.00;;;;;4.98;63.30;100550.31;5078712;27;45483;-71
2023/12/04 03:23:48;;;;;;;;;8.75;7.25;;;;;4.93;64.65;100544.38;5082735;27;45314;-70
2023/12/04 03:26:14;;;;;;;;;8.00;6.75;;;;;4.94;64.62;100535.59;5089391;27;45307;-71
2023/12/04 03:28:42;;;;;;;;;8.75;7.25;;;;;4.83;65.00;100521.09;5082165;27;45306;-71
2023/12/04 03:31:07;;;;;;;;;9.25;6.50;;;;;4.98;64.69;100547.72;5082545;27;45332;-70
2023/12/04 03:33:33;;;;;;;;;6.75;4.00;;;;;4.90;64.98;100538.34;5083412;27;45318;-70
2023/12/04 03:36:01;;;;;;;;;6.50;6.50;;;;;4.96;66.42;100531.19;5084470;27;45405;-70
2023/12/04 03:38:27;;;;;;;;;10.00;7.75;;;;;4.99;67.23;100535.47;5088874;27;45349;-71
2023/12/04 03:40:52;;;;;;;;;7.25;7.25;;;;;4.94;69.18;100524.28;5086441;27;46009;-71
2023/12/04 03:43:18;;;;;;;;;9.00;8.00;;;;;4.95;71.76;100525.97;5093638;27;45474;-71
2023/12/04 03:45:43;;;;;;;;;7.50;7.00;;;;;4.88;72.58;100519.19;5087213;27;45423;-71
2023/12/04 03:48:09;;;;;;;;;7.00;6.50;;;;;4.82;74.38;100512.38;5098133;27;45396;-70
2023/12/04 03:50:34;;;;;;;;;7.50;6.25;;;;;4.83;76.73;100523.72;5094167;27;45845;-70
2023/12/04 03:52:59;;;;;;;;;9.00;9.00;;;;;4.76;79.80;100511.69;5089335;27;45417;-71
2023/12/04 03:55:25;;;;;;;;;4.75;4.75;;;;;4.74;81.38;100528.28;5093748;27;45990;-70
2023/12/04 03:57:51;;;;;;;;;8.25;7.00;;;;;4.67;87.98;100520.66;5097534;27;45297;-69
2023/12/04 04:00:17;;;;;;;;;7.50;7.50;;;;;4.66;89.76;100529.41;5095892;27;45646;-70
2023/12/04 04:02:44;;;;;;;;;11.25;7.75;;;;;4.37;90.12;100482.22;5093590;27;45307;-70
2023/12/04 04:05:09;;;;;;;;;7.00;6.00;;;;;4.61;90.77;100534.75;5086633;27;45409;-71
2023/12/04 04:07:35;;;;;;;;;8.50;7.00;;;;;4.54;89.39;100509.66;5098165;27;45390;-71
2023/12/04 04:10:00;;;;;;;;;7.25;7.25;;;;;4.47;94.23;100502.00;5087622;27;45415;-71
2023/12/04 04:12:29;;;;;;;;;6.00;6.00;;;;;4.49;96.78;100529.00;5089912;27;45310;-71
2023/12/04 04:14:54;;;;;;;;;14.25;8.25;;;;;4.42;96.16;100503.88;5088318;27;45331;-71
2023/12/04 04:17:19;;;;;;;;;10.25;7.00;;;;;4.38;95.40;100492.66;5086263;27;45398;-71
2023/12/04 04:19:45;;;;;;;;;8.75;7.75;;;;;4.36;93.55;100507.53;5088433;27;45412;-71
2023/12/04 04:22:10;;;;;;;;;11.50;10.00;;;;;4.33;97.05;100491.03;5083082;27;45426;-71
2023/12/04 04:24:36;;;;;;;;;6.75;6.75;;;;;4.36;99.43;100485.72;5090220;27;45360;-71
2023/12/04 04:27:01;;;;;;;;;4.50;4.25;;;;;4.26;97.31;100468.53;5081279;27;45851;-71
2023/12/04 04:29:26;;;;;;;;;6.00;6.00;;;;;4.29;100.00;100478.97;5086501;27;45379;-71
2023/12/04 04:31:52;;;;;;;;;5.00;5.00;;;;;4.22;100.00;100461.69;5096304;27;45321;-71
2023/12/04 04:34:17;;;;;;;;;8.00;7.00;;;;;4.31;100.00;100466.69;5097156;27;45306;-71
2023/12/04 04:36:46;;;;;;;;;6.75;5.00;;;;;4.24;100.00;100446.78;5089029;27;45230;-71
2023/12/04 04:39:14;;;;;;;;;8.75;7.75;;;;;4.26;99.94;100455.44;5087057;27;45258;-71
2023/12/04 04:41:40;;;;;;;;;9.25;6.25;;;;;4.14;100.00;100431.34;5092386;27;45347;-71
2023/12/04 04:44:06;;;;;;;;;6.50;6.00;;;;;4.24;100.00;100438.94;5087107;27;45338;-71
2023/12/04 04:46:31;;;;;;;;;6.00;5.00;;;;;4.26;100.00;100434.50;5081767;27;45318;-71
2023/12/04 04:48:57;;;;;;;;;10.75;7.50;;;;;4.22;100.00;100436.38;5081639;27;45656;-71
2023/12/04 04:51:23;;;;;;;;;4.00;4.00;;;;;4.25;100.00;100432.81;5094544;27;45437;-71
2023/12/04 04:53:49;;;;;;;;;7.75;7.75;;;;;4.27;100.00;100417.91;5082876;27;45546;-71
2023/12/04 04:56:17;;;;;;;;;13.50;8.75;;;;;4.14;100.00;100397.31;5089094;27;45328;-71
2023/12/04 04:58:43;;;;;;;;;8.00;8.00;;;;;4.26;100.00;100417.06;5092280;27;45476;-71
2023/12/04 05:01:10;;;;;;;;;6.25;6.25;;;;;4.20;100.00;100394.53;5080440;27;45769;-72
2023/12/04 05:03:36;;;;;;;;;11.00;7.75;;;;;4.24;100.00;100397.94;5088488;27;45413;-72
2023/12/04 05:06:01;;;;;;;;;6.75;5.50;;;;;4.23;100.00;100390.97;5089764;27;45381;-71
2023/12/04 05:08:27;;;;;;;;;7.00;5.50;;;;;4.17;100.00;100386.78;5085575;27;45982;-71
2023/12/04 05:10:52;;;;;;;;;5.50;5.50;;;;;4.18;100.00;100371.94;5094167;27;45256;-71
2023/12/04 05:13:17;;;;;;;;;8.00;6.75;;;;;4.20;100.00;100377.97;5083031;27;45335;-71
2023/12/04 05:15:43;;;;;;;;;6.00;5.00;;;;;4.22;100.00;100385.78;5086538;27;45465;-71
2023/12/04 05:18:08;;;;;;;;;9.25;7.00;;;;;4.24;100.00;100370.91;5101387;27;45443;-71
2023/12/04 05:20:33;;;;;;;;;1.75;0.00;;;;;4.24;100.00;100374.38;5084447;27;45432;-71
2023/12/04 05:22:59;;;;;;;;;6.25;6.25;;;;;4.28;100.00;100369.91;5081840;27;45258;-71
2023/12/04 05:25:24;;;;;;;;;3.00;3.00;;;;;4.26;100.00;100361.22;5090415;27;45427;-71
2023/12/04 05:27:50;;;;;;;;;7.00;7.00;;;;;4.11;100.00;100326.75;5089958;27;45417;-71
2023/12/04 05:30:15;;;;;;;;;5.25;5.00;;;;;4.30;100.00;100347.16;5079412;27;45332;-71
2023/12/04 05:32:40;;;;;;;;;6.75;6.75;;;;;4.29;100.00;100341.06;5075004;27;45311;-71
2023/12/04 05:35:06;;;;;;;;;8.00;6.50;;;;;4.31;100.00;100336.66;5088316;27;45408;-71
2023/12/04 05:37:32;;;;;;;;;6.25;6.25;;;;;4.28;100.00;100328.03;5094676;27;45299;-71
2023/12/04 05:39:57;;;;;;;;;6.25;6.25;;;;;4.19;100.00;100310.81;5090367;27;45333;-71
2023/12/04 05:42:23;;;;;;;;;7.25;6.00;;;;;4.30;100.00;100306.13;5085073;27;45419;-71
2023/12/04 05:44:48;;;;;;;;;5.75;5.75;;;;;4.32;100.00;100308.72;5083660;27;45340;-71
2023/12/04 05:47:14;;;;;;;;;4.00;3.00;;;;;4.19;100.00;100303.81;5088005;27;45595;-71
2023/12/04 05:49:40;;;;;;;;;7.00;7.00;;;;;4.37;100.00;100298.97;5080796;27;45319;-71
2023/12/04 05:52:06;;;;;;;;;7.00;7.00;;;;;4.28;100.00;100284.41;5089787;27;45282;-71
2023/12/04 05:54:31;;;;;;;;;3.75;3.75;;;;;4.31;100.00;100292.16;5090707;27;45335;-71
2023/12/04 05:56:56;;;;;;;;;8.75;5.75;;;;;4.35;100.00;100280.66;5093759;27;45421;-71
2023/12/04 05:59:22;;;;;;;;;6.25;5.25;;;;;4.35;100.00;100287.69;5091037;27;45398;-71
2023/12/04 06:01:48;;;;;;;;;11.00;6.00;;;;;4.29;100.00;100267.78;5086500;27;45367;-71
2023/12/04 06:04:13;;;;;;;;;8.00;4.25;;;;;4.30;100.00;100251.16;5097662;27;45251;-71
2023/12/04 06:06:38;;;;;;;;;6.25;6.25;;;;;4.32;100.00;100244.13;5087684;27;46052;-71
2023/12/04 06:09:05;;;;;;;;;5.25;3.00;;;;;4.36;100.00;100248.38;5093879;27;45355;-71
2023/12/04 06:11:33;;;;;;;;;6.00;6.00;;;;;4.32;100.00;100227.59;5088692;27;45345;-71
2023/12/04 06:13:58;;;;;;;;;8.00;8.00;;;;;4.20;100.00;100194.78;5064464;27;45925;-71
2023/12/04 06:16:24;;;;;;;;;9.00;6.50;;;;;4.25;100.00;100213.81;5097798;27;46182;-71
2023/12/04 06:18:49;;;;;;;;;6.00;6.00;;;;;4.31;100.00;100199.69;5084636;27;45592;-71
2023/12/04 06:21:15;;;;;;;;;4.00;4.00;;;;;4.22;100.00;100187.75;5085184;27;45406;-71
2023/12/04 06:23:40;;;;;;;;;7.50;6.75;;;;;4.18;100.00;100168.66;5076939;28;45532;-71
2023/12/04 06:26:06;;;;;;;;;9.50;6.75;;;;;4.31;100.00;100228.47;5090691;27;46138;-71
2023/12/04 06:28:32;;;;;;;;;7.00;4.00;;;;;4.33;100.00;100208.34;5087254;27;45353;-71
2023/12/04 06:30:58;;;;;;;;;8.00;6.50;;;;;4.36;100.00;100224.81;5085780;27;45232;-71
2023/12/04 06:33:24;;;;;;;;;6.50;6.00;;;;;4.29;100.00;100197.09;5082426;27;45283;-71
2023/12/04 06:35:50;;;;;;;;;8.00;6.00;;;;;4.36;100.00;100208.25;5078353;27;47992;-71
2023/12/04 06:38:19;;;;;;;;;6.00;6.00;;;;;4.35;100.00;100210.00;5066064;27;45261;-71
2023/12/04 06:40:44;;;;;;;;;9.00;6.00;;;;;4.36;100.00;100198.63;5062169;27;45236;-71
2023/12/04 06:43:10;;;;;;;;;2.00;2.00;;;;;4.39;100.00;100200.28;5087704;27;45275;-71
2023/12/04 06:45:36;;;;;;;;;7.25;7.00;;;;;4.41;100.00;100194.13;5090709;27;46509;-71
2023/12/04 06:48:01;;;;;;;;;6.00;5.50;;;;;4.42;100.00;100185.34;5084615;27;45453;-71
2023/12/04 06:50:27;;;;;;;;;4.75;4.75;;;;;4.39;100.00;100181.97;5083120;27;45461;-71
2023/12/04 06:52:52;;;;;;;;;7.75;6.00;;;;;4.43;100.00;100179.22;5094768;27;45354;-71
2023/12/04 06:55:18;;;;;;;;;3.00;3.00;;;;;4.44;100.00;100169.59;5091507;27;45310;-71
2023/12/04 06:57:43;;;;;;;;;8.00;3.25;;;;;4.45;100.00;100168.69;5068430;28;45433;-71
2023/12/04 07:00:14;;;;;;;;;2.50;2.50;;;;;4.45;100.00;100159.06;5083328;27;45415;-71
2023/12/04 07:02:42;;;;;;;;;4.00;3.75;;;;;4.53;100.00;100158.81;5090242;27;45498;-71
2023/12/04 07:05:07;;;;;;;;;7.00;4.00;;;;;4.53;100.00;100143.97;5093745;27;45548;-71
2023/12/04 07:07:32;;;;;;;;;5.50;5.50;;;;;4.39;100.00;100125.22;5094497;27;45212;-72
2023/12/04 07:09:58;;;;;;;;;2.00;2.00;;;;;4.59;100.00;100143.75;5092826;27;45314;-71
2023/12/04 07:12:23;;;;;;;;;4.00;4.00;;;;;4.61;100.00;100149.78;5094339;27;45255;-71
2023/12/04 07:14:49;;;;;;;;;5.25;4.25;;;;;4.61;100.00;100136.69;5074693;27;46850;-71
2023/12/04 07:17:15;;;;;;;;;8.25;6.25;;;;;4.67;100.00;100146.13;5092753;27;45251;-71
2023/12/04 07:19:41;;;;;;;;;6.00;3.50;;;;;4.69;100.00;100141.69;5093848;27;45188;-71
2023/12/04 07:22:06;;;;;;;;;6.75;6.75;;;;;4.71;100.00;100145.97;5091709;27;45363;-71
2023/12/04 07:24:32;;;;;;;;;3.50;3.50;;;;;4.74;100.00;100148.47;5087745;27;45381;-71
2023/12/04 07:27:01;;;;;;;;;3.75;3.75;;;;;4.80;100.00;100157.03;5085488;27;45519;-71
2023/12/04 07:29:26;;;;;;;;;9.25;6.00;;;;;4.70;100.00;100123.31;5094264;27;45266;-71
2023/12/04 07:31:51;;;;;;;;;3.00;3.00;;;;;4.87;100.00;100148.06;5077519;27;45385;-71
2023/12/04 07:34:20;;;;;;;;;4.25;4.25;;;;;4.86;100.00;100122.78;5078770;27;46808;-71
2023/12/04 07:36:45;;;;;;;;;5.00;5.00;;;;;4.84;100.00;100116.75;5091959;27;45232;-71
2023/12/04 07:39:14;;;;;;;;;6.00;4.25;;;;;4.95;100.00;100125.06;5100707;27;45395;-71
2023/12/04 07:41:40;;;;;;;;;6.00;5.50;;;;;4.92;100.00;100120.78;5094201;27;45449;-71
2023/12/04 07:44:06;;;;;;;;;5.75;5.75;;;;;4.92;100.00;100110.31;5084790;27;46331;-71
2023/12/04 07:46:31;;;;;;;;;6.50;6.50;;;;;4.94;100.00;100120.75;5087533;27;45450;-71
2023/12/04 07:48:57;;;;;;;;;8.00;6.50;;;;;4.88;100.00;100099.97;5087664;27;45293;-71
2023/12/04 07:51:22;;;;;;;;;7.00;7.00;;;;;5.00;100.00;100110.91;5085931;27;45449;-71
2023/12/04 07:53:47;;;;;;;;;4.00;4.00;;;;;5.02;100.00;100108.22;5072085;27;48137;-71
2023/12/04 07:56:13;;;;;;;;;4.75;4.50;;;;;5.03;100.00;100107.31;5086151;27;45457;-71
2023/12/04 07:58:38;;;;;;;;;4.50;3.75;;;;;5.06;100.00;100110.69;5087165;27;45455;-70
2023/12/04 08:01:04;;;;;;;;;4.25;4.25;;;;;5.08;100.00;100103.63;5089300;27;45389;-70
2023/12/04 08:03:30;;;;;;;;;5.00;5.00;;;;;4.83;100.00;100055.63;5080658;27;47088;-71
2023/12/04 08:05:55;;;;;;;;;4.25;4.25;;;;;5.15;100.00;100093.78;5091722;27;45440;-71
2023/12/04 08:08:21;;;;;;;;;8.75;7.00;;;;;5.18;100.00;100091.91;5095420;27;45190;-71
2023/12/04 08:10:47;;;;;;;;;6.75;6.75;;;;;5.21;100.00;100072.56;5077718;27;45298;-71
2023/12/04 08:13:12;;;;;;;;;6.33;6.00;;;;;5.20;100.00;100073.50;5084421;27;45255;-71
2023/12/04 08:15:39;;;;;;;;;6.25;5.75;;;;;5.17;100.00;100071.81;5103711;27;45302;-69
2023/12/04 08:18:04;;;;;;;;;4.50;4.00;;;;;5.26;100.00;100068.03;5083345;27;45336;-71
2023/12/04 08:20:29;;;;;;;;;6.00;6.00;;;;;5.29;100.00;100083.66;5081647;27;45346;-69
2023/12/04 08:22:55;;;;;;;;;9.25;6.00;;;;;5.30;100.00;100063.53;5083141;27;45315;-69
2023/12/04 08:25:20;;;;;;;;;5.33;5.33;;;;;5.14;100.00;100050.97;5082023;27;45310;-69
2023/12/04 08:27:46;;;;;;;;;4.50;4.50;;;;;5.35;100.00;100077.31;5065813;28;45428;-69
2023/12/04 08:30:11;;;;;;;;;7.00;7.00;;;;;5.38;100.00;100082.44;5081563;27;45359;-69
2023/12/04 08:32:37;;;;;;;;;4.25;3.00;;;;;5.38;100.00;100098.16;5086290;27;45325;-69
2023/12/04 08:35:03;;;;;;;;;6.00;5.00;;;;;5.35;100.00;100077.31;5088277;27;45379;-69
2023/12/04 08:37:29;;;;;;;;;6.50;5.75;;;;;5.37;100.00;100081.56;5084768;27;45302;-70
2023/12/04 08:39:54;;;;;;;;;7.00;7.00;;;;;5.34;100.00;100076.44;5091225;27;45516;-69
2023/12/04 08:42:19;;;;;;;;;4.25;4.00;;;;;5.34;100.00;100062.47;5072534;27;47275;-69
2023/12/04 08:44:47;;;;;;;;;5.50;3.75;;;;;5.38;100.00;100061.47;5084438;27;45577;-69
2023/12/04 08:47:12;;;;;;;;;7.50;5.00;;;;;5.34;100.00;100052.84;5092673;27;45195;-69
2023/12/04 08:49:40;;;;;;;;;5.00;3.00;;;;;5.37;100.00;100068.47;5090058;27;45284;-70
2023/12/04 08:52:07;;;;;;;;;6.25;6.25;;;;;5.34;100.00;100059.84;5105630;27;45430;-70
2023/12/04 08:54:35;;;;;;;;;6.00;6.00;;;;;5.36;100.00;100053.66;5088797;27;45307;-69
2023/12/04 08:57:00;;;;;;;;;8.00;4.00;;;;;5.35;100.00;100038.84;5075967;28;45287;-70
2023/12/04 08:59:26;;;;;;;;;2.50;1.25;;;;;5.42;100.00;100048.19;5096161;27;45248;-69
2023/12/04 09:01:52;;;;;;;;;6.00;3.75;;;;;5.34;100.00;100023.16;5100668;27;46282;-69
2023/12/04 09:04:17;;;;;;;;;3.50;2.75;;;;;5.45;100.00;100034.97;5095087;27;45359;-70
2023/12/04 09:06:43;;;;;;;;;7.33;4.00;;;;;5.51;100.00;100037.34;5095501;27;45415;-70
2023/12/04 09:09:10;;;;;;;;;4.00;4.00;;;;;5.53;100.00;100026.81;5083345;27;45375;-69
2023/12/04 09:11:41;;;;;;;;;6.25;3.00;;;;;5.54;100.00;100018.00;5093510;27;45469;-70
2023/12/04 09:14:06;;;;;;;;;7.25;4.50;;;;;5.53;100.00;100025.00;5076213;27;45340;-70
2023/12/04 09:16:31;;;;;;;;;6.50;3.75;;;;;5.60;100.00;100025.63;5090958;27;45327;-70
2023/12/04 09:18:57;;;;;;;;;6.67;5.33;;;;;5.36;100.00;99985.50;5089245;27;45369;-70
2023/12/04 09:21:22;;;;;;;;;6.00;4.00;;;;;5.67;100.00;100014.84;5085609;27;45889;-69
2023/12/04 09:23:49;;;;;;;;;5.50;4.50;;;;;5.68;100.00;100018.31;5093486;27;45241;-69
2023/12/04 09:26:16;;;;;;;;;3.75;3.75;;;;;5.70;100.00;100012.09;5082982;27;45330;-69
2023/12/04 09:28:41;;;;;;;;;4.25;4.25;;;;;5.74;100.00;100021.56;5078557;27;45370;-69
2023/12/04 09:31:08;;;;;;;;;6.00;3.33;;;;;5.73;100.00;100017.22;5078296;27;47274;-70
2023/12/04 09:33:34;;;;;;;;;3.50;2.00;;;;;5.79;100.00;100027.44;5098681;27;45328;-70
2023/12/04 09:35:59;;;;;;;;;6.25;3.75;;;;;5.77;100.00;99996.97;5089957;27;45330;-70
2023/12/04 09:38:24;;;;;;;;;3.75;3.75;;;;;5.82;100.00;99992.41;5065227;28;45492;-70
2023/12/04 09:40:53;;;;;;;;;3.00;3.00;;;;;5.89;100.00;99991.22;5069991;27;46043;-69
2023/12/04 09:43:18;;;;;;;;;15.50;6.00;;;;;5.90;100.00;99986.84;5085059;27;45354;-69
2023/12/04 09:45:44;;;;;;;;;12.00;5.50;;;;;5.97;100.00;99973.41;5081161;27;45274;-70
2023/12/04 09:48:11;;;;;;;;;6.00;4.33;;;;;5.91;100.00;99965.81;5087120;27;45627;-70
2023/12/04 09:50:37;;;;;;;;;3.50;3.50;;;;;5.93;100.00;99968.34;5085992;27;46196;-69
2023/12/04 09:53:04;;;;;;;;;6.00;5.33;;;;;6.00;100.00;99978.53;5074154;27;45416;-69
2023/12/04 09:55:29;;;;;;;;;3.67;3.00;;;;;5.98;100.00;99961.16;5082624;27;45389;-70
2023/12/04 09:57:57;;;;;;;;;3.00;3.00;;;;;6.03;100.00;99953.91;5069214;27;45564;-70
2023/12/04 10:00:23;;;;;;;;;6.67;3.00;;;;;6.02;100.00;99936.50;5094642;27;45230;-70
2023/12/04 10:02:48;;;;;;;;;3.67;3.00;;;;;6.08;100.00;99929.22;5087122;27;45401;-70
2023/12/04 10:05:14;;;;;;;;;6.67;3.67;;;;;6.20;100.00;99933.94;5069096;28;45663;-70
2023/12/04 10:07:39;;;;;;;;;2.00;2.00;;;;;6.22;100.00;99920.72;5085401;27;45370;-70
2023/12/04 10:10:08;;;;;;;;;6.00;3.33;;;;;6.24;100.00;99932.88;5089911;27;45865;-70
2023/12/04 10:12:36;;;;;;;;;4.00;4.00;;;;;6.21;100.00;99925.13;5082901;27;45360;-70
2023/12/04 10:15:10;;;;;;;;;4.33;3.33;;;;;6.21;100.00;99922.50;5086601;27;45216;-69
2023/12/04 10:17:40;;;;;;;;;6.67;4.00;;;;;6.26;100.00;99915.28;5081097;27;45207;-70
2023/12/04 10:20:11;;;;;;;;;7.33;4.67;;;;;6.31;100.00;99909.84;5081652;27;46089;-70
2023/12/04 10:22:52;;;;;;;;;6.67;4.67;;;;;6.32;100.00;99894.91;5092698;27;45332;-71
2023/12/04 10:25:19;;;;;;;;;4.67;4.00;;;;;6.43;100.00;99908.44;5063604;27;45303;-71
2023/12/04 10:27:45;;;;;;;;;8.67;6.00;;;;;6.48;100.00;99891.53;5085791;27;45392;-71
2023/12/04 10:30:28;;;;;;;;;4.00;4.00;;;;;6.54;100.00;99887.78;5091773;27;45423;-70
2023/12/04 10:32:55;;;;;;;;;4.67;4.00;;;;;6.63;100.00;99898.75;5082413;27;45510;-70
2023/12/04 10:35:20;;;;;;;;;4.67;4.67;;;;;6.58;100.00;99865.69;5094156;27;45298;-70
2023/12/04 10:37:46;;;;;;;;;2.00;2.00;;;;;6.61;100.00;99871.66;5095280;27;45450;-70
2023/12/04 10:40:22;;;;;;;;;4.67;4.67;;;;;6.77;100.00;99891.06;5094792;27;46235;-70
2023/12/04 10:42:47;;;;;;;;;10.00;6.00;;;;;6.84;100.00;99873.22;5101781;27;45249;-70
2023/12/04 10:45:13;;;;;;;;;8.25;7.00;;;;;6.96;100.00;99883.19;5093833;27;45870;-70
2023/12/04 10:47:38;;;;;;;;;8.00;6.67;;;;;6.98;100.00;99862.06;5096835;27;45589;-71
2023/12/04 10:50:07;;;;;;;;;4.67;4.67;;;;;7.02;100.00;99875.00;5091096;27;46336;-70
2023/12/04 10:52:33;;;;;;;;;8.33;6.00;;;;;7.14;100.00;99856.00;5085547;27;45452;-70
2023/12/04 10:54:59;;;;;;;;;6.33;5.33;;;;;7.28;100.00;99835.16;5082696;27;45280;-70
2023/12/04 10:57:33;;;;;;;;;7.00;5.33;;;;;7.55;100.00;99842.63;5091763;27;45259;-70
2023/12/04 11:00:03;;;;;;;;;4.00;4.00;;;;;7.70;100.00;99847.09;5089909;27;45727;-70
2023/12/04 11:02:32;;;;;;;;;6.67;4.00;;;;;7.82;100.00;99835.94;5083930;27;46364;-70
2023/12/04 11:05:21;;;;;;;;;7.67;6.00;;;;;7.96;100.00;99822.06;5082676;27;45291;-70
2023/12/04 11:08:08;;;;;;;;;6.00;6.00;;;;;8.15;100.00;99821.00;5078277;27;46003;-71
2023/12/04 11:10:41;;;;;;;;;3.00;3.00;;;;;8.26;100.00;99794.13;5093722;27;45313;-70
2023/12/04 11:13:14;;;;;;;;;6.00;3.33;;;;;8.34;100.00;99792.78;5094742;27;45205;-70
2023/12/04 11:15:40;;;;;;;;;3.00;2.67;;;;;8.31;100.00;99795.59;5083848;27;45389;-71
2023/12/04 11:18:10;;;;;;;;;4.00;4.00;;;;;8.35;100.00;99775.19;5073550;27;45515;-70
2023/12/04 11:20:44;;;;;;;;;3.00;3.00;;;;;8.31;100.00;99773.69;5088605;27;46179;-71
2023/12/04 11:23:10;;;;;;;;;4.00;4.00;;;;;8.32;100.00;99757.78;5089388;27;45227;-71
2023/12/04 11:25:36;;;;;;;;;5.67;3.67;;;;;8.39;100.00;99742.50;5083581;27;45313;-70